Time;durP1;ratioP1;P1;durP2;ratioP2;P2;SDS_P1;SDS_P2;PMS_P1;PMS_P2;Temp;Humidity;BMP_temperature;BMP_pressure;BME280_temperature;BME280_humidity;BME280_pressure;Samples;Min_cycle;Max_cycle;Signal;HPM_P1;HPM_P2
2023/09/04 00:02:17;;;;;;;9.10;5.07;;;;;;;;;;6293251;22;20302;-87
2023/09/04 00:04:57;;;;;;;9.82;5.65;;;;;;;;;;6294157;22;20023;-88
2023/09/04 00:07:46;;;;;;;9.23;5.15;;;;;;;;;;6301471;22;20027;-87
2023/09/04 00:10:32;;;;;;;6.03;4.90;;;;;;;;;;6295459;22;20026;-87
2023/09/04 00:13:16;;;;;;;5.63;4.65;;;;;;;;;;6287760;22;20039;-86
2023/09/04 00:15:55;;;;;;;9.60;6.15;;;;;;;;;;6233864;23;20310;-85
2023/09/04 00:18:24;;;;;;;8.90;5.53;;;;;;;;;;6232736;23;20031;-86
2023/09/04 00:21:09;;;;;;;7.85;5.55;;;;;;;;;;6235600;23;20087;-85
2023/09/04 00:23:40;;;;;;;9.05;5.05;;;;;;;;;;6232448;23;20040;-86
2023/09/04 00:26:09;;;;;;;8.07;5.65;;;;;;;;;;6235525;23;20115;-87
2023/09/04 00:28:59;;;;;;;6.82;5.28;;;;;;;;;;6238730;23;20110;-86
2023/09/04 00:31:33;;;;;;;11.18;5.60;;;;;;;;;;6237982;23;20020;-85
2023/09/04 00:34:08;;;;;;;7.72;5.53;;;;;;;;;;6240611;23;20045;-87
2023/09/04 00:36:40;;;;;;;7.38;5.10;;;;;;;;;;6239752;23;20040;-86
2023/09/04 00:39:24;;;;;;;9.38;5.80;;;;;;;;;;6227433;23;20048;-86
2023/09/04 00:42:00;;;;;;;7.38;4.78;;;;;;;;;;6266411;23;20020;-86
2023/09/04 00:44:47;;;;;;;8.77;6.25;;;;;;;;;;6232895;23;20012;-86
2023/09/04 00:47:29;;;;;;;8.10;5.78;;;;;;;;;;6212826;23;20398;-86
2023/09/04 00:50:00;;;;;;;6.28;5.25;;;;;;;;;;6239569;23;20024;-86
2023/09/04 00:52:42;;;;;;;9.15;5.60;;;;;;;;;;6266417;23;20031;-86
2023/09/04 00:55:25;;;;;;;6.28;4.85;;;;;;;;;;6243489;23;20020;-87
2023/09/04 00:58:00;;;;;;;9.68;6.15;;;;;;;;;;6238815;23;20019;-87
2023/09/04 01:00:45;;;;;;;6.50;4.78;;;;;;;;;;6263228;23;20284;-86
2023/09/04 01:03:13;;;;;;;6.85;4.82;;;;;;;;;;6236352;23;20080;-87
2023/09/04 01:05:48;;;;;;;8.15;5.10;;;;;;;;;;6238519;23;20024;-86
2023/09/04 01:08:16;;;;;;;8.82;5.85;;;;;;;;;;6237830;23;20027;-86
2023/09/04 01:11:07;;;;;;;6.38;4.80;;;;;;;;;;6262980;23;20416;-87
2023/09/04 01:13:51;;;;;;;10.63;5.70;;;;;;;;;;6243633;22;20035;-86
2023/09/04 01:16:32;;;;;;;7.00;5.43;;;;;;;;;;6293923;22;20024;-86
2023/09/04 01:19:18;;;;;;;8.23;5.63;;;;;;;;;;6285270;22;20020;-89
2023/09/04 01:21:51;;;;;;;6.72;5.68;;;;;;;;;;6289569;22;20083;-86
2023/09/04 01:24:26;;;;;;;10.68;5.80;;;;;;;;;;6291135;22;20050;-86
2023/09/04 01:27:15;;;;;;;7.32;5.35;;;;;;;;;;6289018;22;20054;-86
2023/09/04 01:30:07;;;;;;;6.40;5.22;;;;;;;;;;6293091;22;20030;-86
2023/09/04 01:32:47;;;;;;;8.75;5.80;;;;;;;;;;6287854;22;20079;-86
2023/09/04 01:35:21;;;;;;;12.00;5.63;;;;;;;;;;6290259;22;20321;-85
2023/09/04 01:37:54;;;;;;;7.43;5.38;;;;;;;;;;6290852;22;20038;-86
2023/09/04 01:40:31;;;;;;;10.52;5.75;;;;;;;;;;6288439;22;20028;-87
2023/09/04 01:43:19;;;;;;;9.77;6.03;;;;;;;;;;6287724;22;20098;-87
2023/09/04 01:45:51;;;;;;;12.85;6.68;;;;;;;;;;6289630;22;20079;-86
2023/09/04 01:48:34;;;;;;;7.13;5.53;;;;;;;;;;6291646;22;20027;-86
2023/09/04 01:51:19;;;;;;;6.72;5.80;;;;;;;;;;6292758;22;20428;-86
2023/09/04 01:54:02;;;;;;;8.57;6.10;;;;;;;;;;6289241;22;20418;-86
2023/09/04 01:57:03;;;;;;;9.57;6.80;;;;;;;;;;6290873;22;20020;-85
2023/09/04 01:59:33;;;;;;;10.15;6.00;;;;;;;;;;6288311;22;20045;-86
2023/09/04 02:02:07;;;;;;;13.05;6.80;;;;;;;;;;6288286;22;20078;-86
2023/09/04 02:04:36;;;;;;;8.00;6.20;;;;;;;;;;6287897;22;20020;-86
2023/09/04 02:07:05;;;;;;;11.13;6.60;;;;;;;;;;6287581;22;20294;-86
2023/09/04 02:09:33;;;;;;;8.82;6.65;;;;;;;;;;6289908;22;20023;-86
2023/09/04 02:12:04;;;;;;;8.25;6.47;;;;;;;;;;6288085;22;20034;-85
2023/09/04 02:14:35;;;;;;;7.60;5.95;;;;;;;;;;6290609;22;20039;-85
2023/09/04 02:17:03;;;;;;;9.07;5.45;;;;;;;;;;6288030;22;20346;-86
2023/09/04 02:19:32;;;;;;;8.60;5.80;;;;;;;;;;6287712;22;20027;-85
2023/09/04 02:22:08;;;;;;;12.00;7.05;;;;;;;;;;6287360;22;20020;-85
2023/09/04 02:24:46;;;;;;;7.65;6.22;;;;;;;;;;6289455;22;20012;-86
2023/09/04 02:31:26;;;;;;;10.18;7.28;;;;;;;;;;6292691;22;20072;-86
2023/09/04 02:34:28;;;;;;;9.55;6.47;;;;;;;;;;6292420;22;20019;-87
2023/09/04 02:37:10;;;;;;;9.15;6.15;;;;;;;;;;6296496;22;20058;-86
2023/09/04 02:39:41;;;;;;;8.93;6.45;;;;;;;;;;6292345;22;20094;-86
2023/09/04 02:42:11;;;;;;;8.00;5.72;;;;;;;;;;6290716;22;20076;-86
2023/09/04 02:44:46;;;;;;;8.38;5.65;;;;;;;;;;6291867;22;20046;-87
2023/09/04 02:47:23;;;;;;;8.40;6.53;;;;;;;;;;6295171;22;20257;-86
2023/09/04 02:50:05;;;;;;;10.68;6.82;;;;;;;;;;6292726;22;20027;-86
2023/09/04 02:52:37;;;;;;;9.90;7.35;;;;;;;;;;6292710;22;20024;-86
2023/09/04 02:55:15;;;;;;;10.30;6.93;;;;;;;;;;6293783;22;20039;-85
2023/09/04 02:57:46;;;;;;;14.30;8.30;;;;;;;;;;6292868;22;20024;-87
2023/09/04 03:00:18;;;;;;;11.57;7.90;;;;;;;;;;6292331;22;20020;-87
2023/09/04 03:02:57;;;;;;;10.95;7.38;;;;;;;;;;6288622;22;20020;-86
2023/09/04 03:05:31;;;;;;;9.18;6.93;;;;;;;;;;6294185;22;20050;-88
2023/09/04 03:08:02;;;;;;;10.15;6.93;;;;;;;;;;6293541;22;20023;-87
2023/09/04 03:10:33;;;;;;;10.20;7.15;;;;;;;;;;6295984;22;20071;-86
2023/09/04 03:13:09;;;;;;;10.48;7.10;;;;;;;;;;6300147;22;20007;-87
2023/09/04 03:15:54;;;;;;;10.45;7.30;;;;;;;;;;6288684;22;20024;-86
2023/09/04 03:18:23;;;;;;;11.88;7.18;;;;;;;;;;6299539;22;20030;-86
2023/09/04 03:20:56;;;;;;;17.02;7.50;;;;;;;;;;6297787;22;20021;-86
2023/09/04 03:23:37;;;;;;;12.93;8.27;;;;;;;;;;6295465;22;20080;-86
2023/09/04 03:29:34;;;;;;;9.13;6.40;;;;;;;;;;6294942;22;20023;-86
2023/09/04 03:32:05;;;;;;;10.20;6.75;;;;;;;;;;6293776;22;20023;-86
2023/09/04 03:34:38;;;;;;;14.07;7.05;;;;;;;;;;6290388;22;20127;-85
2023/09/04 03:37:12;;;;;;;14.02;7.53;;;;;;;;;;6292214;22;20019;-87
2023/09/04 03:39:40;;;;;;;10.82;7.57;;;;;;;;;;6290172;22;20075;-86
2023/09/04 03:42:19;;;;;;;11.73;7.80;;;;;;;;;;6291040;22;20026;-87
2023/09/04 03:44:59;;;;;;;13.80;8.23;;;;;;;;;;6278039;22;20027;-87
2023/09/04 03:47:41;;;;;;;12.55;7.70;;;;;;;;;;6290652;22;20028;-87
2023/09/04 03:50:24;;;;;;;11.23;6.65;;;;;;;;;;6288320;22;20028;-86
2023/09/04 03:53:06;;;;;;;8.95;5.93;;;;;;;;;;6288215;22;20075;-86
2023/09/04 04:02:09;;;;;;;11.45;7.07;;;;;;;;;;6290261;22;20023;-86
2023/09/04 04:04:43;;;;;;;15.93;7.65;;;;;;;;;;6319658;22;20023;-86
2023/09/04 04:07:16;;;;;;;9.82;6.78;;;;;;;;;;6322489;22;20019;-88
2023/09/04 04:09:47;;;;;;;8.68;6.70;;;;;;;;;;6318097;22;20023;-88
2023/09/04 04:12:20;;;;;;;8.70;6.85;;;;;;;;;;6320048;22;20304;-86
2023/09/04 04:14:58;;;;;;;10.93;7.10;;;;;;;;;;6315925;22;20055;-86
2023/09/04 04:17:32;;;;;;;9.43;7.38;;;;;;;;;;6312941;22;20427;-85
2023/09/04 04:20:15;;;;;;;12.63;8.30;;;;;;;;;;6313132;22;20031;-85
2023/09/04 04:22:45;;;;;;;9.38;6.20;;;;;;;;;;6314684;22;20046;-86
2023/09/04 04:25:32;;;;;;;13.07;6.93;;;;;;;;;;6314943;22;20019;-86
2023/09/04 04:28:38;;;;;;;;;;;;;;;;;;;;;
2023/09/04 04:31:10;;;;;;;9.52;5.60;;;;;;;;;;6317121;22;20046;-86
2023/09/04 04:33:39;;;;;;;11.85;7.38;;;;;;;;;;6316048;22;20071;-86
2023/09/04 04:36:22;;;;;;;11.15;7.75;;;;;;;;;;6320432;22;20023;-87
2023/09/04 04:38:51;;;;;;;10.30;6.68;;;;;;;;;;6316307;22;20110;-86
2023/09/04 04:41:23;;;;;;;11.20;6.97;;;;;;;;;;6312915;22;20023;-87
2023/09/04 04:43:54;;;;;;;9.18;5.97;;;;;;;;;;6313945;22;20081;-86
2023/09/04 04:46:23;;;;;;;8.77;5.78;;;;;;;;;;6317605;22;20023;-86
2023/09/04 04:48:58;;;;;;;13.02;7.30;;;;;;;;;;6315235;22;20027;-86
2023/09/04 04:51:30;;;;;;;9.60;7.38;;;;;;;;;;6315029;22;20023;-86
2023/09/04 04:54:10;;;;;;;14.15;7.70;;;;;;;;;;6312899;22;20031;-85
2023/09/04 04:56:40;;;;;;;10.25;7.55;;;;;;;;;;6312800;22;20072;-86
2023/09/04 04:59:21;;;;;;;13.48;8.48;;;;;;;;;;6312935;22;20172;-87
2023/09/04 05:01:49;;;;;;;11.38;8.43;;;;;;;;;;6318541;22;20027;-88
2023/09/04 05:04:26;;;;;;;14.20;9.70;;;;;;;;;;6317799;22;20075;-86
2023/09/04 05:10:22;;;;;;;13.30;10.07;;;;;;;;;;6319528;22;20066;-86
2023/09/04 05:13:00;;;;;;;15.13;11.95;;;;;;;;;;6321462;22;20084;-86
2023/09/04 05:15:38;;;;;;;17.10;11.40;;;;;;;;;;6317345;22;20072;-85
2023/09/04 05:18:12;;;;;;;17.05;10.43;;;;;;;;;;6316562;22;20027;-86
2023/09/04 05:20:54;;;;;;;14.38;10.68;;;;;;;;;;6315633;22;20031;-86
2023/09/04 05:23:22;;;;;;;13.77;9.00;;;;;;;;;;6315012;22;20034;-86
2023/09/04 05:25:53;;;;;;;11.20;9.02;;;;;;;;;;6314047;22;20034;-85
2023/09/04 05:28:35;;;;;;;11.73;9.23;;;;;;;;;;6313713;22;20027;-86
2023/09/04 05:31:07;;;;;;;10.95;8.80;;;;;;;;;;6319634;22;20079;-86
2023/09/04 05:33:48;;;;;;;12.20;8.55;;;;;;;;;;6312491;22;20026;-86
2023/09/04 05:36:21;;;;;;;9.85;7.32;;;;;;;;;;6314666;22;20023;-86
2023/09/04 05:42:15;;;;;;;8.82;5.95;;;;;;;;;;6312784;22;20009;-87
2023/09/04 05:44:45;;;;;;;7.15;4.28;;;;;;;;;;6310391;22;20208;-86
2023/09/04 05:47:25;;;;;;;7.93;3.90;;;;;;;;;;6308564;22;20124;-86
2023/09/04 05:50:03;;;;;;;8.07;4.20;;;;;;;;;;6307967;22;20024;-87
2023/09/04 05:52:43;;;;;;;6.10;4.18;;;;;;;;;;6308786;22;20100;-87
2023/09/04 05:55:13;;;;;;;5.35;4.05;;;;;;;;;;6308056;22;20019;-86
2023/09/04 05:57:47;;;;;;;5.80;3.78;;;;;;;;;;6306616;22;20080;-86
2023/09/04 06:00:31;;;;;;;7.95;4.57;;;;;;;;;;6302480;22;20023;-86
2023/09/04 06:03:00;;;;;;;5.53;3.78;;;;;;;;;;6304033;22;20081;-87
2023/09/04 06:05:40;;;;;;;8.35;3.95;;;;;;;;;;6303284;22;20068;-87
2023/09/04 06:08:10;;;;;;;4.65;3.35;;;;;;;;;;6303206;22;20129;-86
2023/09/04 06:10:44;;;;;;;8.85;3.65;;;;;;;;;;6303088;22;20027;-86
2023/09/04 06:13:17;;;;;;;6.47;4.50;;;;;;;;;;6306491;22;20061;-86
2023/09/04 06:16:03;;;;;;;8.65;4.03;;;;;;;;;;6322405;22;20032;-87
2023/09/04 06:26:52;;;;;;;9.23;4.57;;;;;;;;;;6278118;22;20712;-86
2023/09/04 06:29:32;;;;;;;9.45;3.72;;;;;;;;;;6249917;22;20012;-86
2023/09/04 06:32:04;;;;;;;5.93;3.97;;;;;;;;;;6251678;22;20023;-85
2023/09/04 06:34:35;;;;;;;8.70;4.20;;;;;;;;;;6253637;22;20023;-86
2023/09/04 06:37:25;;;;;;;6.10;3.90;;;;;;;;;;6255496;22;20050;-86
2023/09/04 06:39:54;;;;;;;7.50;4.38;;;;;;;;;;6245414;22;20048;-86
2023/09/04 06:42:42;;;;;;;7.43;4.60;;;;;;;;;;6247895;22;20129;-88
2023/09/04 06:45:37;;;;;;;11.65;4.72;;;;;;;;;;6250860;22;20283;-87
2023/09/04 06:48:08;;;;;;;7.18;4.95;;;;;;;;;;6249138;22;20409;-87
2023/09/04 06:50:45;;;;;;;10.55;5.43;;;;;;;;;;6252065;22;20023;-86
2023/09/04 06:53:14;;;;;;;9.57;4.10;;;;;;;;;;6271932;22;20024;-87
2023/09/04 06:55:50;;;;;;;5.03;3.50;;;;;;;;;;6246448;22;20152;-87
2023/09/04 06:58:32;;;;;;;9.45;3.80;;;;;;;;;;6247223;22;20038;-87
2023/09/04 07:01:03;;;;;;;9.75;4.20;;;;;;;;;;6243041;22;20601;-87
2023/09/04 07:03:41;;;;;;;9.88;4.25;;;;;;;;;;6247065;22;20037;-86
2023/09/04 07:06:10;;;;;;;9.23;3.33;;;;;;;;;;6248626;22;20053;-86
2023/09/04 07:09:11;;;;;;;8.77;4.30;;;;;;;;;;6252247;22;20284;-86
2023/09/04 07:11:52;;;;;;;6.10;3.28;;;;;;;;;;6253287;22;20047;-87
2023/09/04 07:14:28;;;;;;;4.40;2.72;;;;;;;;;;6255454;22;20024;-87
2023/09/04 07:17:13;;;;;;;5.40;3.10;;;;;;;;;;6254954;22;20059;-87
2023/09/04 07:19:41;;;;;;;9.27;2.90;;;;;;;;;;6256868;22;20139;-86
2023/09/04 07:25:56;;;;;;;3.63;1.95;;;;;;;;;;6288623;22;20027;-87
2023/09/04 07:28:28;;;;;;;5.13;2.83;;;;;;;;;;6256514;22;20198;-87
2023/09/04 07:31:22;;;;;;;10.30;3.08;;;;;;;;;;6259852;22;20054;-87
2023/09/04 07:34:14;;;;;;;12.02;3.00;;;;;;;;;;6260144;22;20024;-87
2023/09/04 07:36:42;;;;;;;5.95;3.03;;;;;;;;;;6254938;22;20028;-86
2023/09/04 07:39:21;;;;;;;7.50;2.88;;;;;;;;;;6281660;22;20024;-86
2023/09/04 07:41:56;;;;;;;6.93;2.83;;;;;;;;;;6255460;22;20174;-85
2023/09/04 07:44:38;;;;;;;3.97;2.80;;;;;;;;;;6256082;22;20070;-86
2023/09/04 07:47:25;;;;;;;4.43;3.03;;;;;;;;;;6257167;22;20034;-87
2023/09/04 07:49:58;;;;;;;14.77;3.35;;;;;;;;;;6257556;22;20101;-87
2023/09/04 07:52:35;;;;;;;6.38;3.40;;;;;;;;;;6258954;22;20046;-87
2023/09/04 07:55:11;;;;;;;5.85;2.78;;;;;;;;;;6279779;22;20075;-86
2023/09/04 07:57:52;;;;;;;12.65;2.47;;;;;;;;;;6253792;22;20200;-87
2023/09/04 08:00:46;;;;;;;3.42;2.10;;;;;;;;;;6255004;22;20260;-87
2023/09/04 08:03:39;;;;;;;4.22;2.65;;;;;;;;;;6247509;22;20031;-86
2023/09/04 08:06:09;;;;;;;3.40;2.63;;;;;;;;;;6221593;23;20155;-86
2023/09/04 08:09:10;;;;;;;4.13;2.30;;;;;;;;;;6224150;23;20020;-87
2023/09/04 08:11:46;;;;;;;3.88;2.03;;;;;;;;;;6222113;23;20221;-87
2023/09/04 08:14:22;;;;;;;5.10;1.75;;;;;;;;;;6221321;23;20249;-86
2023/09/04 08:16:55;;;;;;;6.78;1.80;;;;;;;;;;6215777;23;20182;-87
2023/09/04 08:19:26;;;;;;;8.48;1.70;;;;;;;;;;6242806;23;20020;-87
2023/09/04 08:22:01;;;;;;;2.53;1.63;;;;;;;;;;6243315;23;20020;-87
2023/09/04 08:27:42;;;;;;;3.67;1.55;;;;;;;;;;6222623;23;20277;-85
2023/09/04 08:30:28;;;;;;;2.63;1.35;;;;;;;;;;6219806;22;20024;-86
2023/09/04 08:33:11;;;;;;;2.72;1.48;;;;;;;;;;6243619;23;20278;-86
2023/09/04 08:35:39;;;;;;;2.50;1.45;;;;;;;;;;6239996;22;20206;-85
2023/09/04 08:38:10;;;;;;;2.80;1.42;;;;;;;;;;6215744;23;20347;-85
2023/09/04 08:40:41;;;;;;;4.32;1.80;;;;;;;;;;6215194;23;20063;-85
2023/09/04 08:43:10;;;;;;;1.83;1.30;;;;;;;;;;6215683;23;20080;-86
2023/09/04 08:45:41;;;;;;;3.92;1.45;;;;;;;;;;6223129;23;20020;-86
2023/09/04 08:48:20;;;;;;;6.07;1.38;;;;;;;;;;6249073;23;20021;-86
2023/09/04 08:51:05;;;;;;;4.38;1.00;;;;;;;;;;6206856;23;20022;-87
2023/09/04 08:53:39;;;;;;;2.75;1.27;;;;;;;;;;6217984;23;20160;-87
2023/09/04 08:56:09;;;;;;;1.42;0.80;;;;;;;;;;6243443;23;20028;-87
2023/09/04 08:58:43;;;;;;;2.50;1.42;;;;;;;;;;6243294;23;20112;-87
2023/09/04 09:01:20;;;;;;;3.35;1.20;;;;;;;;;;6244138;23;20075;-86
2023/09/04 09:03:49;;;;;;;2.13;1.58;;;;;;;;;;6218367;23;20024;-86
2023/09/04 09:06:25;;;;;;;3.97;1.20;;;;;;;;;;6215023;23;20461;-86
2023/09/04 09:09:06;;;;;;;2.22;1.27;;;;;;;;;;6223127;23;20480;-85
2023/09/04 09:11:39;;;;;;;2.42;1.20;;;;;;;;;;6227678;22;20024;-86
2023/09/04 09:14:14;;;;;;;2.60;1.17;;;;;;;;;;6221744;23;20267;-86
2023/09/04 09:17:15;;;;;;;2.35;1.40;;;;;;;;;;6219230;23;20059;-87
2023/09/04 15:51:19;;;;;;;4.43;1.45;;;;;;;;;;6241882;22;20032;-89
2023/09/04 15:53:57;;;;;;;3.85;1.85;;;;;;;;;;6218180;23;20028;-90
2023/09/04 16:00:20;;;;;;;2.55;1.70;;;;;;;;;;6244658;23;20282;-89
2023/09/04 16:02:53;;;;;;;5.03;1.73;;;;;;;;;;6215502;23;20382;-90
2023/09/04 16:05:42;;;;;;;3.15;2.17;;;;;;;;;;6216577;22;20032;-89
2023/09/04 16:39:27;;;;;;;7.93;1.80;;;;;;;;;;6261045;22;20061;-89
2023/09/04 16:42:31;;;;;;;3.80;1.80;;;;;;;;;;6253556;22;20053;-90
2023/09/04 16:45:26;;;;;;;3.28;2.03;;;;;;;;;;6133133;23;20040;-89
2023/09/04 16:48:18;;;;;;;1.88;1.58;;;;;;;;;;6134700;23;20053;-89
2023/09/04 16:51:21;;;;;;;5.78;1.33;;;;;;;;;;6149822;23;20118;-90
2023/09/04 16:53:53;;;;;;;3.28;1.70;;;;;;;;;;6123288;23;20030;-90
2023/09/04 16:56:32;;;;;;;2.40;1.60;;;;;;;;;;6150891;23;20321;-89
2023/09/04 16:59:02;;;;;;;3.08;1.60;;;;;;;;;;6149658;23;20068;-90
2023/09/04 17:01:39;;;;;;;3.17;1.63;;;;;;;;;;6150225;23;20104;-89
2023/09/04 17:07:47;;;;;;;2.83;1.88;;;;;;;;;;6077844;23;20052;-86
2023/09/04 17:10:35;;;;;;;3.35;1.48;;;;;;;;;;6127357;23;20309;-87
2023/09/04 17:13:21;;;;;;;2.38;1.50;;;;;;;;;;6126695;23;20340;-87
2023/09/04 17:16:02;;;;;;;4.72;1.92;;;;;;;;;;6125728;23;20032;-88
2023/09/04 17:19:10;;;;;;;2.78;1.67;;;;;;;;;;6162400;23;20043;-88
2023/09/04 17:21:51;;;;;;;7.28;1.88;;;;;;;;;;6182089;22;20031;-90
2023/09/04 17:24:44;;;;;;;3.85;1.95;;;;;;;;;;6274019;22;20150;-91
2023/09/04 17:31:09;;;;;;;3.30;1.65;;;;;;;;;;6217266;23;20067;-90
2023/09/04 17:33:51;;;;;;;4.35;1.92;;;;;;;;;;6220651;23;20217;-90
2023/09/04 17:36:26;;;;;;;2.92;1.70;;;;;;;;;;6197292;23;20036;-89
2023/09/04 17:39:20;;;;;;;3.55;2.00;;;;;;;;;;6167805;23;20033;-91
2023/09/04 17:42:09;;;;;;;3.15;2.03;;;;;;;;;;6216512;23;20025;-89
2023/09/04 17:44:44;;;;;;;3.25;1.88;;;;;;;;;;6215954;23;20032;-89
2023/09/04 17:47:28;;;;;;;4.07;1.70;;;;;;;;;;6220152;23;20052;-90
2023/09/04 17:49:59;;;;;;;4.20;2.13;;;;;;;;;;6222648;23;20036;-90
2023/09/04 17:52:30;;;;;;;4.38;2.20;;;;;;;;;;6195753;23;20056;-89
2023/09/04 17:55:10;;;;;;;7.65;2.53;;;;;;;;;;6221844;23;20047;-90
2023/09/04 17:58:05;;;;;;;5.72;2.40;;;;;;;;;;6207643;22;20035;-90
2023/09/04 18:00:42;;;;;;;5.00;1.92;;;;;;;;;;6256508;22;20024;-90
2023/09/04 18:03:21;;;;;;;3.72;2.03;;;;;;;;;;6257806;22;20068;-89
2023/09/04 18:05:52;;;;;;;4.30;2.30;;;;;;;;;;6282772;22;20258;-88
2023/09/04 18:08:22;;;;;;;5.45;2.22;;;;;;;;;;6282334;22;20047;-90
2023/09/04 18:11:02;;;;;;;4.07;2.22;;;;;;;;;;6254318;22;20034;-89
2023/09/04 18:13:43;;;;;;;3.97;2.20;;;;;;;;;;6271498;22;20034;-90
2023/09/04 18:16:30;;;;;;;2.53;1.40;;;;;;;;;;6248664;22;20093;-89
2023/09/04 18:19:00;;;;;;;3.70;2.13;;;;;;;;;;6274169;22;20051;-90
2023/09/04 18:21:35;;;;;;;5.43;2.42;;;;;;;;;;6252668;22;20020;-90
2023/09/04 18:24:09;;;;;;;3.22;2.13;;;;;;;;;;6251828;22;20139;-90
2023/09/04 18:26:56;;;;;;;4.13;2.30;;;;;;;;;;6277879;22;20221;-90
2023/09/04 18:29:34;;;;;;;3.58;2.20;;;;;;;;;;6255627;22;20051;-90
2023/09/04 18:32:05;;;;;;;3.83;1.83;;;;;;;;;;6278456;22;20054;-90
2023/09/04 18:34:41;;;;;;;5.35;1.98;;;;;;;;;;6280220;22;20054;-91
2023/09/04 18:37:14;;;;;;;4.90;2.95;;;;;;;;;;6254726;22;20038;-90
2023/09/04 18:39:51;;;;;;;4.10;2.83;;;;;;;;;;6253856;22;20187;-89
2023/09/04 18:42:30;;;;;;;3.03;2.03;;;;;;;;;;6257507;22;20019;-89
2023/09/04 18:45:03;;;;;;;6.07;2.60;;;;;;;;;;6256721;22;20100;-90
2023/09/04 18:47:31;;;;;;;3.42;2.30;;;;;;;;;;6253315;22;20047;-90
2023/09/04 18:50:25;;;;;;;6.63;2.83;;;;;;;;;;6256057;22;20101;-89
2023/09/04 18:52:58;;;;;;;3.85;2.50;;;;;;;;;;6283327;22;20028;-89
2023/09/04 18:55:37;;;;;;;13.13;5.20;;;;;;;;;;6281283;22;20152;-87
2023/09/04 18:58:24;;;;;;;8.57;3.88;;;;;;;;;;6248850;22;20054;-86
2023/09/04 19:01:15;;;;;;;9.75;3.80;;;;;;;;;;6245471;22;20024;-87
2023/09/04 19:15:00;;;;;;;7.45;2.95;;;;;;;;;;6290856;22;20053;-87
2023/09/04 19:17:44;;;;;;;7.07;2.72;;;;;;;;;;6253487;22;20139;-86
2023/09/04 19:23:59;;;;;;;7.10;3.15;;;;;;;;;;6294019;22;20165;-86
2023/09/04 19:26:52;;;;;;;8.18;3.30;;;;;;;;;;6251250;22;20024;-87
2023/09/04 19:29:30;;;;;;;4.72;2.78;;;;;;;;;;6253497;22;20200;-87
2023/09/04 19:35:39;;;;;;;4.10;2.95;;;;;;;;;;6280235;22;20148;-86
2023/09/04 19:38:14;;;;;;;4.85;2.63;;;;;;;;;;6254695;22;20042;-86
2023/09/04 19:40:49;;;;;;;4.68;2.80;;;;;;;;;;6255475;22;20124;-86
2023/09/04 19:43:33;;;;;;;5.68;3.22;;;;;;;;;;6257181;22;20366;-87
2023/09/04 19:53:05;;;;;;;6.60;3.35;;;;;;;;;;6280831;22;20010;-87
2023/09/04 19:55:41;;;;;;;6.20;3.08;;;;;;;;;;6253958;22;20020;-87
2023/09/04 20:00:55;;;;;;;6.75;3.85;;;;;;;;;;6285203;22;20010;-87
2023/09/04 20:03:35;;;;;;;10.45;4.32;;;;;;;;;;6260799;22;20007;-88
2023/09/04 20:06:20;;;;;;;5.00;3.13;;;;;;;;;;6260212;22;20047;-88
2023/09/04 20:08:54;;;;;;;5.38;3.30;;;;;;;;;;6260408;22;20115;-88
2023/09/04 20:11:27;;;;;;;7.07;3.38;;;;;;;;;;6255220;22;20022;-88
2023/09/04 20:13:59;;;;;;;6.40;3.42;;;;;;;;;;6255111;22;20024;-88
2023/09/04 20:16:50;;;;;;;6.70;3.63;;;;;;;;;;6283012;22;20108;-87
2023/09/04 20:19:38;;;;;;;7.60;4.03;;;;;;;;;;6265828;22;20012;-88
2023/09/04 20:22:22;;;;;;;4.95;3.08;;;;;;;;;;6265381;22;20012;-88
2023/09/04 20:24:57;;;;;;;6.57;3.88;;;;;;;;;;6291181;22;20030;-88
2023/09/04 20:27:35;;;;;;;5.20;3.20;;;;;;;;;;6267011;22;20057;-89
2023/09/04 20:30:07;;;;;;;5.15;2.88;;;;;;;;;;6266021;22;20075;-88
2023/09/04 20:32:53;;;;;;;6.30;3.40;;;;;;;;;;6265834;22;20039;-88
2023/09/04 20:42:30;;;;;;;5.45;3.00;;;;;;;;;;6291364;22;20196;-87
2023/09/04 20:45:03;;;;;;;5.88;3.88;;;;;;;;;;6265385;22;20093;-88
2023/09/04 20:48:21;;;;;;;4.20;2.55;;;;;;;;;;6291374;22;20122;-88
2023/09/04 20:51:09;;;;;;;5.55;2.80;;;;;;;;;;6268035;22;20361;-88
2023/09/04 20:53:59;;;;;;;6.28;3.22;;;;;;;;;;6268901;22;20057;-86
2023/09/04 20:57:02;;;;;;;5.97;3.40;;;;;;;;;;6291257;22;20079;-87
2023/09/04 20:59:43;;;;;;;5.68;3.55;;;;;;;;;;6264604;22;20032;-87
2023/09/04 21:02:15;;;;;;;5.45;3.38;;;;;;;;;;6264736;22;20023;-87
2023/09/04 21:04:47;;;;;;;6.00;3.35;;;;;;;;;;6266096;22;20050;-87
2023/09/04 23:23:11;;;;;;;5.55;3.20;;;;;;;;;;6292150;22;20019;-86
2023/09/04 23:25:49;;;;;;;4.95;2.70;;;;;;;;;;6263958;22;20047;-87
2023/09/04 23:32:51;;;;;;;5.68;3.15;;;;;;;;;;6225950;23;20020;-86
2023/09/04 23:47:02;;;;;;;3.97;2.65;;;;;;;;;;6223958;23;20031;-86
2023/09/04 23:49:46;;;;;;;6.10;3.05;;;;;;;;;;6200156;23;20009;-87
2023/09/04 23:52:18;;;;;;;8.35;3.53;;;;;;;;;;6199043;23;20092;-86
2023/09/04 23:54:50;;;;;;;7.13;3.78;;;;;;;;;;6197543;23;20036;-86
2023/09/04 23:57:35;;;;;;;6.75;3.78;;;;;;;;;;6192150;23;20028;-85
